Princimar Pride — V7XL5 — position and weather

sailwx.info

Track history (hours):
 
Tides and Currents Weather Stations Pressure Air Temp Water Temp Dewpoint Dewpoint Depression Visibility Wind Speed Wind Dir Waves Ship Positions

Princimar Pride

Last reported at 2014-Dec-03 03:13 UTC. Time now 2014-Dec-19 21:42 UTC.
Position N 44°00' W 005°58'.
Warning: this ship's position is 16 days out of date.

Length 274 m; draft 8.6 m.

Type: Tanker. MMSI: 538004509.

Date/timePositionNaut miles runAvg speedWind from/ knotsBaromVisibWave heightAir tempDewpointWater temp
2014-Dec-03 03:13N 44°00' W 005°58'25 9.5
2014-Dec-03 00:33N 43°56' W 005°23'9 9.2
2014-Dec-02 23:33N 43°54' W 005°11'23 9.6
2014-Dec-02 21:09N 43°50' W 004°39'73 2.3
2014-Dec-01 13:16N 43°22' W 003°06'0 0.0
2014-Dec-01 12:31N 43°22' W 003°06'0 0.0
2014-Dec-01 11:31N 43°22' W 003°06'0 0.0
2014-Dec-01 10:31N 43°22' W 003°06'0 0.0
2014-Dec-01 09:22N 43°22' W 003°06'0 0.0
2014-Dec-01 08:28N 43°22' W 003°06'0 0.0
2014-Dec-01 07:31N 43°22' W 003°06'0 0.0
2014-Dec-01 06:31N 43°22' W 003°06'0 0.0
2014-Dec-01 05:31N 43°22' W 003°06'0 0.0
2014-Dec-01 04:31N 43°22' W 003°06'0 0.0
2014-Dec-01 03:31N 43°22' W 003°06'0 0.0
2014-Dec-01 02:31N 43°22' W 003°06'0 0.0
2014-Dec-01 01:31N 43°22' W 003°06'0 0.0
2014-Dec-01 00:31N 43°22' W 003°06'0 0.0
2014-Nov-30 23:31N 43°22' W 003°06'0 0.0
2014-Nov-30 22:31N 43°22' W 003°06'0 0.0
2014-Nov-30 21:31N 43°22' W 003°06'0 0.0
2014-Nov-30 20:31N 43°22' W 003°06'96 4.8
2014-Nov-30 00:29N 43°57' W 005°10'  
Track history (hours):
 
Tides and Currents Weather Stations Pressure Air Temp Water Temp Dewpoint Dewpoint Depression Visibility Wind Speed Wind Dir Waves Ship Positions

Princimar Pride

Last reported at 2014-Dec-03 03:13 UTC. Time now 2014-Dec-19 21:42 UTC.
Position N 44°00' W 005°58'.
Warning: this ship's position is 16 days out of date.

Length 274 m; draft 8.6 m.

Type: Tanker. MMSI: 538004509.

Date/timePositionNaut miles runAvg speedWind from/ knotsBaromVisibWave heightAir tempDewpointWater temp
2014-Dec-03 03:13N 44°00' W 005°58'25 9.5
2014-Dec-03 00:33N 43°56' W 005°23'9 9.2
2014-Dec-02 23:33N 43°54' W 005°11'23 9.6
2014-Dec-02 21:09N 43°50' W 004°39'73 2.3
2014-Dec-01 13:16N 43°22' W 003°06'0 0.0
2014-Dec-01 12:31N 43°22' W 003°06'0 0.0
2014-Dec-01 11:31N 43°22' W 003°06'0 0.0
2014-Dec-01 10:31N 43°22' W 003°06'0 0.0
2014-Dec-01 09:22N 43°22' W 003°06'0 0.0
2014-Dec-01 08:28N 43°22' W 003°06'0 0.0
2014-Dec-01 07:31N 43°22' W 003°06'0 0.0
2014-Dec-01 06:31N 43°22' W 003°06'0 0.0
2014-Dec-01 05:31N 43°22' W 003°06'0 0.0
2014-Dec-01 04:31N 43°22' W 003°06'0 0.0
2014-Dec-01 03:31N 43°22' W 003°06'0 0.0
2014-Dec-01 02:31N 43°22' W 003°06'0 0.0
2014-Dec-01 01:31N 43°22' W 003°06'0 0.0
2014-Dec-01 00:31N 43°22' W 003°06'0 0.0
2014-Nov-30 23:31N 43°22' W 003°06'0 0.0
2014-Nov-30 22:31N 43°22' W 003°06'0 0.0
2014-Nov-30 21:31N 43°22' W 003°06'0 0.0
2014-Nov-30 20:31N 43°22' W 003°06'96 4.8
2014-Nov-30 00:29N 43°57' W 005°10'  

Dump ship's entire track history